Terminal Aerodrome Forecast
Issued by NWS

Home | Current Version | Previous Version | Text Only | Print | Product List | Glossary On
Versions: 1 2 3 4 5 6 7 8 9 10 11 12 13 14
000
FTUS46 KOTX 271138
TAFMWH
TAF
KMWH 271138Z 2712/2812 26005KT P6SM VCSH SCT250
     FM271300 26012KT P6SM SCT120 SCT200
     FM272100 24007KT P6SM FEW070 FEW200
     FM280300 28008KT P6SM FEW200=

USA.gov is the U.S. government's official web portal to all federal, state and local government web resources and services.